Time;durP1;ratioP1;P1;durP2;ratioP2;P2;SDS_P1;SDS_P2;PMS_P1;PMS_P2;Temp;Humidity;BMP_temperature;BMP_pressure;BME280_temperature;BME280_humidity;BME280_pressure;Samples;Min_cycle;Max_cycle;Signal;HPM_P1;HPM_P2
2022/06/12 00:00:44;;;;;;;12.35;4.78;;;;;;;;;;5089482;28;20379;-74
2022/06/12 00:03:12;;;;;;;8.82;4.28;;;;;;;;;;5088565;28;20093;-74
2022/06/12 00:05:40;;;;;;;10.30;3.65;;;;;;;;;;5085185;28;20048;-74
2022/06/12 00:08:07;;;;;;;9.40;4.55;;;;;;;;;;5075883;28;20125;-74
2022/06/12 00:10:34;;;;;;;12.50;5.68;;;;;;;;;;5087021;28;20036;-74
2022/06/12 00:13:01;;;;;;;9.77;3.70;;;;;;;;;;5084352;28;20140;-75
2022/06/12 00:15:28;;;;;;;13.73;3.70;;;;;;;;;;5088085;28;20032;-74
2022/06/12 00:17:54;;;;;;;11.00;3.83;;;;;;;;;;5088035;28;20186;-74
2022/06/12 00:20:23;;;;;;;10.63;3.90;;;;;;;;;;5085776;28;20040;-73
2022/06/12 00:22:50;;;;;;;8.10;3.83;;;;;;;;;;5081822;28;20097;-73
2022/06/12 00:25:18;;;;;;;8.98;4.15;;;;;;;;;;5075132;28;20048;-75
2022/06/12 00:27:44;;;;;;;12.50;4.72;;;;;;;;;;5063581;28;20055;-75
2022/06/12 00:30:13;;;;;;;13.90;5.88;;;;;;;;;;5088893;28;20047;-74
2022/06/12 00:32:39;;;;;;;17.15;9.13;;;;;;;;;;5089476;28;20504;-75
2022/06/12 00:35:07;;;;;;;26.02;14.32;;;;;;;;;;5086448;28;20169;-74
2022/06/12 00:37:35;;;;;;;27.02;20.13;;;;;;;;;;5082143;28;20114;-74
2022/06/12 00:40:01;;;;;;;32.70;19.63;;;;;;;;;;5072410;28;20120;-74
2022/06/12 00:42:27;;;;;;;24.73;18.48;;;;;;;;;;5079676;28;20072;-74
2022/06/12 00:44:54;;;;;;;22.20;14.75;;;;;;;;;;5086656;28;20506;-74
2022/06/12 00:47:21;;;;;;;19.50;12.90;;;;;;;;;;5085252;28;20112;-74
2022/06/12 00:49:49;;;;;;;15.18;10.02;;;;;;;;;;5077767;28;20132;-74
2022/06/12 00:52:15;;;;;;;17.05;8.82;;;;;;;;;;5085801;28;20039;-74
2022/06/12 00:54:43;;;;;;;12.90;7.25;;;;;;;;;;5087897;28;20087;-74
2022/06/12 00:57:09;;;;;;;16.63;7.57;;;;;;;;;;5085575;28;20398;-74
2022/06/12 00:59:40;;;;;;;14.82;6.95;;;;;;;;;;5077239;28;20631;-74
2022/06/12 01:02:08;;;;;;;12.35;5.75;;;;;;;;;;5085021;28;20536;-74
2022/06/12 01:07:22;;;;;;;12.63;5.68;;;;;;;;;;5082775;28;20186;-73
2022/06/12 01:09:50;;;;;;;9.27;4.70;;;;;;;;;;5068332;28;20120;-74
2022/06/12 01:12:18;;;;;;;10.50;4.90;;;;;;;;;;5084207;28;20507;-74
2022/06/12 01:14:53;;;;;;;12.10;4.75;;;;;;;;;;5083560;28;20044;-74
2022/06/12 01:17:22;;;;;;;9.40;4.45;;;;;;;;;;5077710;28;20032;-74
2022/06/12 01:19:50;;;;;;;14.02;5.53;;;;;;;;;;5074259;28;20044;-73
2022/06/12 01:22:20;;;;;;;10.20;4.88;;;;;;;;;;5082550;28;20051;-74
2022/06/12 01:24:46;;;;;;;10.90;4.78;;;;;;;;;;5084495;28;20040;-73
2022/06/12 01:27:15;;;;;;;10.43;4.85;;;;;;;;;;5088315;28;20044;-74
2022/06/12 01:30:04;;;;;;;34.35;5.70;;;;;;;;;;5080226;28;20486;-73
2022/06/12 01:32:43;;;;;;;8.40;4.70;;;;;;;;;;5078315;28;20036;-74
2022/06/12 01:35:19;;;;;;;11.18;3.95;;;;;;;;;;5065121;28;20470;-74
2022/06/12 01:37:49;;;;;;;13.10;4.82;;;;;;;;;;5083331;28;20383;-74
2022/06/12 01:40:16;;;;;;;9.65;5.25;;;;;;;;;;5082596;28;20040;-74
2022/06/12 01:42:58;;;;;;;9.43;4.40;;;;;;;;;;5076098;28;20038;-73
2022/06/12 01:45:30;;;;;;;10.82;4.13;;;;;;;;;;5075977;28;20044;-74
2022/06/12 01:48:06;;;;;;;6.68;4.13;;;;;;;;;;5059713;28;20291;-73
2022/06/12 01:50:32;;;;;;;11.93;5.13;;;;;;;;;;5077659;28;20032;-75
2022/06/12 01:52:59;;;;;;;13.93;4.68;;;;;;;;;;5075260;28;20075;-74
2022/06/12 01:55:25;;;;;;;14.27;5.88;;;;;;;;;;5085718;28;20480;-74
2022/06/12 01:58:10;;;;;;;11.93;5.22;;;;;;;;;;5074111;28;20048;-74
2022/06/12 02:00:36;;;;;;;14.80;4.82;;;;;;;;;;5082057;28;20043;-74
2022/06/12 02:03:11;;;;;;;10.05;5.28;;;;;;;;;;5084513;28;20461;-74
2022/06/12 02:05:57;;;;;;;10.20;3.95;;;;;;;;;;5078252;28;20028;-73
2022/06/12 02:08:26;;;;;;;14.38;4.53;;;;;;;;;;5077270;28;20071;-74
2022/06/12 02:14:02;;;;;;;7.57;4.13;;;;;;;;;;5063018;28;20047;-74
2022/06/12 02:16:32;;;;;;;12.13;4.05;;;;;;;;;;5073987;28;20461;-74
2022/06/12 02:19:00;;;;;;;14.70;4.70;;;;;;;;;;5072836;28;20552;-74
2022/06/12 02:21:31;;;;;;;19.88;6.32;;;;;;;;;;5089983;28;20032;-73
2022/06/12 02:24:06;;;;;;;7.82;4.15;;;;;;;;;;5071570;28;20044;-73
2022/06/12 02:26:38;;;;;;;10.70;4.45;;;;;;;;;;5087204;28;20493;-74
2022/06/12 02:29:10;;;;;;;19.03;6.67;;;;;;;;;;5060421;28;20041;-74
2022/06/12 02:31:37;;;;;;;14.00;5.15;;;;;;;;;;5075668;28;20513;-74
2022/06/12 02:34:07;;;;;;;12.98;4.75;;;;;;;;;;5073792;28;20048;-74
2022/06/12 02:36:35;;;;;;;16.08;5.22;;;;;;;;;;5085032;28;20055;-74
2022/06/12 02:39:05;;;;;;;20.05;6.30;;;;;;;;;;5085383;28;20470;-74
2022/06/12 02:41:33;;;;;;;17.42;6.10;;;;;;;;;;5086169;28;20040;-74
2022/06/12 02:44:04;;;;;;;13.90;5.07;;;;;;;;;;5086357;28;20504;-73
2022/06/12 02:46:36;;;;;;;11.98;5.25;;;;;;;;;;5085183;28;20036;-74
2022/06/12 02:49:02;;;;;;;11.15;4.55;;;;;;;;;;5075016;28;20185;-74
2022/06/12 02:51:37;;;;;;;13.85;4.90;;;;;;;;;;5078074;28;20142;-74
2022/06/12 02:54:06;;;;;;;11.30;4.80;;;;;;;;;;5083979;28;20044;-74
2022/06/12 02:56:41;;;;;;;13.82;5.20;;;;;;;;;;5090711;28;20535;-74
2022/06/12 02:59:15;;;;;;;15.00;5.10;;;;;;;;;;5074792;28;20102;-74
2022/06/12 03:01:46;;;;;;;16.50;5.43;;;;;;;;;;5080835;28;20052;-74
2022/06/12 03:04:26;;;;;;;11.05;4.85;;;;;;;;;;5086986;28;20393;-73
2022/06/12 03:06:52;;;;;;;14.38;5.45;;;;;;;;;;5085350;28;20093;-73
2022/06/12 03:09:18;;;;;;;7.78;5.28;;;;;;;;;;5086759;28;20510;-74
2022/06/12 03:11:48;;;;;;;13.38;5.43;;;;;;;;;;5089114;28;20130;-74
2022/06/12 03:14:15;;;;;;;17.20;5.00;;;;;;;;;;5088032;28;20107;-74
2022/06/12 03:16:42;;;;;;;12.93;5.50;;;;;;;;;;5078606;28;20051;-74
2022/06/12 03:19:11;;;;;;;13.88;5.85;;;;;;;;;;5079798;28;20044;-74
2022/06/12 03:21:46;;;;;;;14.00;5.10;;;;;;;;;;5078795;28;20765;-74
2022/06/12 03:24:25;;;;;;;11.48;4.90;;;;;;;;;;5089731;28;20146;-73
2022/06/12 03:27:03;;;;;;;16.70;5.57;;;;;;;;;;5072025;28;20047;-73
2022/06/12 03:29:48;;;;;;;12.40;4.85;;;;;;;;;;5094768;28;20545;-74
2022/06/12 03:32:21;;;;;;;15.60;5.78;;;;;;;;;;5085320;28;20032;-74
2022/06/12 03:35:05;;;;;;;18.25;5.07;;;;;;;;;;5084815;28;20068;-74
2022/06/12 03:37:31;;;;;;;26.10;6.47;;;;;;;;;;5090354;28;20043;-74
2022/06/12 03:40:02;;;;;;;15.10;5.50;;;;;;;;;;5088708;28;20040;-74
2022/06/12 03:42:28;;;;;;;13.88;6.00;;;;;;;;;;5077900;28;20060;-74
2022/06/12 03:45:01;;;;;;;15.05;4.53;;;;;;;;;;5076171;28;20076;-74
2022/06/12 03:47:30;;;;;;;14.38;5.10;;;;;;;;;;5089139;28;20101;-73
2022/06/12 03:50:00;;;;;;;14.55;5.38;;;;;;;;;;5075661;28;20147;-74
2022/06/12 03:52:32;;;;;;;13.43;5.22;;;;;;;;;;5075162;28;20067;-74
2022/06/12 03:55:11;;;;;;;9.43;4.72;;;;;;;;;;5078145;28;20044;-73
2022/06/12 03:57:52;;;;;;;9.98;4.63;;;;;;;;;;5089352;28;20419;-74
2022/06/12 04:00:22;;;;;;;13.15;5.18;;;;;;;;;;5074144;28;20067;-74
2022/06/12 04:02:57;;;;;;;11.48;5.68;;;;;;;;;;5079682;28;20051;-74
2022/06/12 04:05:35;;;;;;;13.05;5.85;;;;;;;;;;5084514;28;20047;-74
2022/06/12 04:08:02;;;;;;;13.60;5.90;;;;;;;;;;5072373;28;20123;-74
2022/06/12 04:10:31;;;;;;;15.40;5.22;;;;;;;;;;5077534;28;20091;-74
2022/06/12 04:12:58;;;;;;;8.60;4.53;;;;;;;;;;5089905;28;20036;-74
2022/06/12 04:15:35;;;;;;;21.00;7.50;;;;;;;;;;5074588;28;20175;-74
2022/06/12 04:18:04;;;;;;;20.00;7.03;;;;;;;;;;5088220;28;20417;-74
2022/06/12 04:20:49;;;;;;;16.33;5.93;;;;;;;;;;5080224;28;20115;-74
2022/06/12 04:23:33;;;;;;;22.67;7.10;;;;;;;;;;5086987;28;20035;-74
2022/06/12 04:26:08;;;;;;;14.80;5.28;;;;;;;;;;5068867;28;20123;-74
2022/06/12 04:28:36;;;;;;;18.30;5.40;;;;;;;;;;5079502;28;20510;-74
2022/06/12 04:31:04;;;;;;;14.10;5.53;;;;;;;;;;5088549;28;20036;-73
2022/06/12 04:33:56;;;;;;;14.55;6.15;;;;;;;;;;5079624;28;20097;-73
2022/06/12 04:36:23;;;;;;;10.07;4.88;;;;;;;;;;5083295;28;20059;-74
2022/06/12 04:38:49;;;;;;;16.70;6.70;;;;;;;;;;5086514;28;20038;-74
2022/06/12 04:41:21;;;;;;;14.80;5.45;;;;;;;;;;5081541;28;20043;-73
2022/06/12 04:43:47;;;;;;;10.38;5.32;;;;;;;;;;5088831;28;20125;-74
2022/06/12 04:46:13;;;;;;;11.57;5.53;;;;;;;;;;5078407;28;20036;-74
2022/06/12 04:48:41;;;;;;;19.40;6.30;;;;;;;;;;5081460;28;20041;-74
2022/06/12 04:51:08;;;;;;;20.23;6.05;;;;;;;;;;5084739;28;20472;-74
2022/06/12 04:53:35;;;;;;;16.98;5.43;;;;;;;;;;5084661;28;20046;-74
2022/06/12 04:56:03;;;;;;;18.13;7.70;;;;;;;;;;5076979;28;20459;-74
2022/06/12 04:58:29;;;;;;;21.00;6.40;;;;;;;;;;5070204;28;20489;-74
2022/06/12 05:00:56;;;;;;;20.98;8.27;;;;;;;;;;5083489;28;20048;-74
2022/06/12 05:03:22;;;;;;;25.30;6.65;;;;;;;;;;5085904;28;20040;-74
2022/06/12 05:05:48;;;;;;;16.45;6.88;;;;;;;;;;5085833;28;20047;-74
2022/06/12 05:08:15;;;;;;;18.15;6.53;;;;;;;;;;5084634;28;20055;-75
2022/06/12 05:10:41;;;;;;;16.73;5.80;;;;;;;;;;5065753;28;22179;-74
2022/06/12 05:13:08;;;;;;;13.00;6.53;;;;;;;;;;5079563;28;20112;-74
2022/06/12 05:15:35;;;;;;;21.00;7.05;;;;;;;;;;5085648;28;20044;-74
2022/06/12 05:18:01;;;;;;;16.27;7.70;;;;;;;;;;5080814;28;20089;-74
2022/06/12 05:20:28;;;;;;;20.75;7.10;;;;;;;;;;5083783;28;20464;-74
2022/06/12 05:22:55;;;;;;;13.30;6.35;;;;;;;;;;5096106;28;20194;-75
2022/06/12 05:25:23;;;;;;;15.77;7.57;;;;;;;;;;5066475;28;20493;-74
2022/06/12 05:27:49;;;;;;;19.42;7.15;;;;;;;;;;5072335;28;20137;-75
2022/06/12 05:30:18;;;;;;;17.00;6.80;;;;;;;;;;5070870;28;20063;-74
2022/06/12 05:32:45;;;;;;;18.25;6.13;;;;;;;;;;5074330;28;20043;-74
2022/06/12 05:35:12;;;;;;;20.90;7.07;;;;;;;;;;5088435;28;20060;-75
2022/06/12 05:37:38;;;;;;;20.15;7.03;;;;;;;;;;5083863;28;20097;-74
2022/06/12 05:40:07;;;;;;;19.05;7.57;;;;;;;;;;5073065;28;20094;-74
2022/06/12 05:42:33;;;;;;;24.63;7.75;;;;;;;;;;5077343;28;20387;-74
2022/06/12 05:44:59;;;;;;;25.52;8.00;;;;;;;;;;5082085;28;20416;-74
2022/06/12 05:47:25;;;;;;;23.60;9.68;;;;;;;;;;5086907;28;20036;-74
2022/06/12 05:49:51;;;;;;;29.17;8.50;;;;;;;;;;5070538;28;20487;-73
2022/06/12 05:52:17;;;;;;;29.00;9.43;;;;;;;;;;5075923;28;20468;-74
2022/06/12 05:54:44;;;;;;;27.38;8.65;;;;;;;;;;5075783;28;20033;-74
2022/06/12 05:57:10;;;;;;;23.58;8.38;;;;;;;;;;5085414;28;20044;-74
2022/06/12 05:59:36;;;;;;;26.88;9.75;;;;;;;;;;5080249;28;20055;-74
2022/06/12 06:02:02;;;;;;;27.02;8.82;;;;;;;;;;5089637;28;20050;-75
2022/06/12 06:04:29;;;;;;;20.10;8.85;;;;;;;;;;5082891;28;20064;-74
2022/06/12 06:06:57;;;;;;;25.42;8.20;;;;;;;;;;5087301;28;20050;-74
2022/06/12 06:09:23;;;;;;;17.98;8.10;;;;;;;;;;5088003;28;20044;-74
2022/06/12 06:11:50;;;;;;;25.13;9.45;;;;;;;;;;5083111;28;20032;-75
2022/06/12 06:14:16;;;;;;;23.90;8.18;;;;;;;;;;5086100;28;20044;-75
2022/06/12 06:16:43;;;;;;;27.92;9.00;;;;;;;;;;5084083;28;20047;-75
2022/06/12 06:19:10;;;;;;;26.67;9.05;;;;;;;;;;5062427;28;20036;-75
2022/06/12 06:21:36;;;;;;;32.20;8.25;;;;;;;;;;5083884;28;20042;-75
2022/06/12 06:24:03;;;;;;;31.75;8.98;;;;;;;;;;5077701;28;20524;-75
2022/06/12 06:26:29;;;;;;;24.83;7.93;;;;;;;;;;5079559;28;20146;-74
2022/06/12 06:28:57;;;;;;;22.08;8.65;;;;;;;;;;5080574;28;20032;-75
2022/06/12 06:31:24;;;;;;;21.23;7.85;;;;;;;;;;5079547;28;20036;-75
2022/06/12 06:33:50;;;;;;;25.42;8.25;;;;;;;;;;5081522;28;20120;-75
2022/06/12 06:36:17;;;;;;;25.65;8.60;;;;;;;;;;5084433;28;20032;-75
2022/06/12 06:38:45;;;;;;;21.23;7.72;;;;;;;;;;5090314;28;20043;-75
2022/06/12 06:41:11;;;;;;;20.55;8.20;;;;;;;;;;5085693;28;20578;-75
2022/06/12 06:46:23;;;;;;;17.42;7.28;;;;;;;;;;5088930;28;20493;-75
2022/06/12 06:48:50;;;;;;;18.08;8.23;;;;;;;;;;5084133;28;20497;-75
2022/06/12 06:51:17;;;;;;;20.40;7.13;;;;;;;;;;5070910;28;20101;-75
2022/06/12 06:53:43;;;;;;;27.48;6.32;;;;;;;;;;5088005;28;20040;-74
2022/06/12 06:56:09;;;;;;;25.98;7.63;;;;;;;;;;5090716;28;20119;-75
2022/06/12 06:58:35;;;;;;;18.15;7.75;;;;;;;;;;5087959;28;20043;-75
2022/06/12 07:01:02;;;;;;;24.20;7.85;;;;;;;;;;5078052;28;20032;-75
2022/06/12 07:03:28;;;;;;;20.33;6.05;;;;;;;;;;5089273;28;20036;-76
2022/06/12 07:05:54;;;;;;;20.10;6.13;;;;;;;;;;5081836;28;20413;-75
2022/06/12 07:08:21;;;;;;;14.73;5.40;;;;;;;;;;5086224;28;20052;-75
2022/06/12 07:10:49;;;;;;;17.00;6.53;;;;;;;;;;5089409;28;20035;-75
2022/06/12 07:13:15;;;;;;;23.10;6.53;;;;;;;;;;5089913;28;20054;-75
2022/06/12 07:15:41;;;;;;;17.08;6.10;;;;;;;;;;5083035;28;20036;-75
2022/06/12 07:18:08;;;;;;;15.80;6.03;;;;;;;;;;5088221;28;20051;-75
2022/06/12 07:20:37;;;;;;;14.88;6.65;;;;;;;;;;5085698;28;20043;-76
2022/06/12 07:23:04;;;;;;;10.98;5.47;;;;;;;;;;5087615;28;20304;-75
2022/06/12 07:25:31;;;;;;;12.93;6.63;;;;;;;;;;5090108;28;20489;-75
2022/06/12 07:27:58;;;;;;;16.45;6.00;;;;;;;;;;5083804;28;20474;-76
2022/06/12 07:30:24;;;;;;;13.73;5.13;;;;;;;;;;5088434;28;20474;-75
2022/06/12 07:32:50;;;;;;;9.05;4.55;;;;;;;;;;5089250;28;20555;-75
2022/06/12 07:35:17;;;;;;;16.42;5.28;;;;;;;;;;5087040;28;20507;-75
2022/06/12 07:37:44;;;;;;;21.95;6.28;;;;;;;;;;5088228;28;20131;-77
2022/06/12 07:40:13;;;;;;;13.25;4.80;;;;;;;;;;5086350;28;20059;-75
2022/06/12 07:42:39;;;;;;;10.60;4.35;;;;;;;;;;5085654;28;20036;-76
2022/06/12 07:45:06;;;;;;;12.75;5.50;;;;;;;;;;5083063;28;20032;-76
2022/06/12 07:47:32;;;;;;;16.27;6.38;;;;;;;;;;5086314;28;20285;-75
2022/06/12 07:49:59;;;;;;;11.23;4.43;;;;;;;;;;5086513;28;20052;-75
2022/06/12 07:52:26;;;;;;;7.00;3.67;;;;;;;;;;5083981;28;20051;-76
2022/06/12 07:54:52;;;;;;;12.32;5.10;;;;;;;;;;5080340;28;20060;-75
2022/06/12 07:57:19;;;;;;;12.05;3.63;;;;;;;;;;5089065;28;20194;-75
2022/06/12 07:59:45;;;;;;;8.48;3.50;;;;;;;;;;5082867;28;20478;-76
2022/06/12 08:02:11;;;;;;;13.75;4.03;;;;;;;;;;5086644;28;20039;-76
2022/06/12 08:04:38;;;;;;;10.82;3.35;;;;;;;;;;5078926;28;20496;-75
2022/06/12 08:07:04;;;;;;;20.35;4.80;;;;;;;;;;5086312;28;20040;-76
2022/06/12 08:09:30;;;;;;;9.18;3.97;;;;;;;;;;5086050;28;20446;-76
2022/06/12 08:11:56;;;;;;;12.85;3.63;;;;;;;;;;5080833;28;20178;-76
2022/06/12 08:14:23;;;;;;;6.03;2.88;;;;;;;;;;5083023;28;20064;-76
2022/06/12 08:16:50;;;;;;;13.07;4.00;;;;;;;;;;5073935;28;20441;-76
2022/06/12 08:22:02;;;;;;;9.18;3.83;;;;;;;;;;5081020;28;20567;-77
2022/06/12 08:24:28;;;;;;;16.00;4.30;;;;;;;;;;5087647;28;20113;-77
2022/06/12 08:26:54;;;;;;;7.03;3.90;;;;;;;;;;5082107;28;20038;-76
2022/06/12 08:29:20;;;;;;;9.38;3.60;;;;;;;;;;5085269;28;20123;-76
2022/06/12 08:31:52;;;;;;;5.60;2.92;;;;;;;;;;5089637;28;20040;-76
2022/06/12 08:34:22;;;;;;;10.95;3.35;;;;;;;;;;5088438;28;20404;-77
2022/06/12 08:36:53;;;;;;;4.28;2.25;;;;;;;;;;5087783;28;20040;-78
2022/06/12 08:39:19;;;;;;;6.45;2.80;;;;;;;;;;5088193;28;20135;-77
2022/06/12 08:42:04;;;;;;;8.85;4.55;;;;;;;;;;5073800;28;20065;-78
2022/06/12 08:44:33;;;;;;;6.35;3.03;;;;;;;;;;5088448;28;20501;-75
2022/06/12 08:47:03;;;;;;;7.15;3.15;;;;;;;;;;5088595;28;20039;-77
2022/06/12 08:49:29;;;;;;;6.88;2.80;;;;;;;;;;5087355;28;20566;-77
2022/06/12 08:52:01;;;;;;;8.55;3.08;;;;;;;;;;5078616;28;20046;-79
2022/06/12 08:54:35;;;;;;;11.77;3.47;;;;;;;;;;5085816;28;20040;-77
2022/06/12 08:57:05;;;;;;;15.13;3.95;;;;;;;;;;5081885;28;20486;-77
2022/06/12 08:59:34;;;;;;;8.52;3.33;;;;;;;;;;5070795;28;20105;-77
2022/06/12 09:02:04;;;;;;;7.47;2.70;;;;;;;;;;5078153;28;20063;-77
2022/06/12 09:04:30;;;;;;;10.55;3.75;;;;;;;;;;5083215;28;20040;-77
2022/06/12 09:07:01;;;;;;;8.27;2.80;;;;;;;;;;5076082;28;20047;-76
2022/06/12 09:09:27;;;;;;;6.65;3.17;;;;;;;;;;5087479;28;20096;-76
2022/06/12 09:12:04;;;;;;;8.23;2.95;;;;;;;;;;5085552;28;20043;-77
2022/06/12 09:14:39;;;;;;;7.25;3.53;;;;;;;;;;5084235;28;20044;-76
2022/06/12 09:17:11;;;;;;;9.27;3.05;;;;;;;;;;5075874;28;20055;-76
2022/06/12 09:19:42;;;;;;;5.18;2.65;;;;;;;;;;5075203;28;20333;-77
2022/06/12 09:22:09;;;;;;;7.95;2.83;;;;;;;;;;5084443;28;20067;-77
2022/06/12 09:24:47;;;;;;;4.38;2.45;;;;;;;;;;5057295;28;20489;-77
2022/06/12 09:27:35;;;;;;;6.63;3.38;;;;;;;;;;5085391;28;20055;-78
2022/06/12 09:30:08;;;;;;;6.55;3.28;;;;;;;;;;5084232;28;20556;-79
2022/06/12 09:32:43;;;;;;;9.65;2.75;;;;;;;;;;5080988;28;20406;-79
2022/06/12 09:35:29;;;;;;;6.47;2.30;;;;;;;;;;5082763;28;20039;-77
2022/06/12 09:38:21;;;;;;;7.15;2.55;;;;;;;;;;5089955;28;20132;-79
2022/06/12 09:40:50;;;;;;;5.93;3.67;;;;;;;;;;5083104;28;20093;-79
2022/06/12 09:43:19;;;;;;;8.82;3.13;;;;;;;;;;5081185;28;20040;-79
2022/06/12 09:46:02;;;;;;;10.00;3.17;;;;;;;;;;5091365;28;20391;-79
2022/06/12 09:48:28;;;;;;;;;;;;;;;;;;5088658;28;20482;-79
2022/06/12 09:51:03;;;;;;;6.40;2.83;;;;;;;;;;5073891;28;19924;-79
2022/06/12 09:53:41;;;;;;;6.88;3.08;;;;;;;;;;5088469;28;20094;-81
2022/06/12 09:56:17;;;;;;;4.70;2.33;;;;;;;;;;5077907;28;20093;-80
2022/06/12 09:59:09;;;;;;;6.20;2.63;;;;;;;;;;5082272;28;20116;-79
2022/06/12 10:01:38;;;;;;;9.00;2.97;;;;;;;;;;5075770;28;20064;-77
2022/06/12 10:04:10;;;;;;;9.02;3.13;;;;;;;;;;5077205;28;20464;-78
2022/06/12 10:06:42;;;;;;;10.95;3.70;;;;;;;;;;5082257;28;20059;-79
2022/06/12 10:09:14;;;;;;;21.50;3.73;;;;;;;;;;5083236;28;20282;-79
2022/06/12 10:11:43;;;;;;;6.35;2.67;;;;;;;;;;5087299;28;20466;-78
2022/06/12 10:14:42;;;;;;;12.27;3.53;;;;;;;;;;5084207;28;20190;-78
2022/06/12 10:17:11;;;;;;;10.52;3.17;;;;;;;;;;5059500;28;20452;-79
2022/06/12 10:19:56;;;;;;;9.52;3.10;;;;;;;;;;5087906;28;20044;-78
2022/06/12 10:22:33;;;;;;;8.63;3.28;;;;;;;;;;5086765;28;20044;-78
2022/06/12 10:25:00;;;;;;;14.32;3.78;;;;;;;;;;5077650;28;20457;-78
2022/06/12 10:27:37;;;;;;;9.20;2.90;;;;;;;;;;5079928;28;20432;-78
2022/06/12 10:30:04;;;;;;;10.30;3.75;;;;;;;;;;5092017;28;20032;-80
2022/06/12 10:32:50;;;;;;;7.32;3.05;;;;;;;;;;5082931;28;20508;-78
2022/06/12 10:35:18;;;;;;;7.93;3.00;;;;;;;;;;5087571;28;20044;-79
2022/06/12 10:37:44;;;;;;;7.88;3.72;;;;;;;;;;5078895;28;20036;-78
2022/06/12 10:40:18;;;;;;;11.85;3.75;;;;;;;;;;5056204;28;20521;-78
2022/06/12 10:42:56;;;;;;;5.57;3.55;;;;;;;;;;5085328;28;20500;-80
2022/06/12 10:45:22;;;;;;;12.45;3.30;;;;;;;;;;5078266;28;20093;-80
2022/06/12 10:47:49;;;;;;;9.43;3.30;;;;;;;;;;5082891;28;20085;-79
2022/06/12 10:50:24;;;;;;;7.95;3.13;;;;;;;;;;5083974;28;20051;-78
2022/06/12 10:52:57;;;;;;;7.05;3.35;;;;;;;;;;5086505;28;20036;-80
2022/06/12 10:55:39;;;;;;;7.72;4.03;;;;;;;;;;5089155;28;20031;-81
2022/06/12 10:58:24;;;;;;;6.88;3.80;;;;;;;;;;5089126;28;20044;-80
2022/06/12 11:00:52;;;;;;;10.43;3.55;;;;;;;;;;5088560;28;20062;-80
2022/06/12 11:03:21;;;;;;;7.57;3.10;;;;;;;;;;5077353;28;20125;-79
2022/06/12 11:05:54;;;;;;;7.53;3.70;;;;;;;;;;5083422;28;20097;-79
2022/06/12 11:08:23;;;;;;;8.93;4.03;;;;;;;;;;5084669;28;20130;-78
2022/06/12 11:10:55;;;;;;;8.40;3.47;;;;;;;;;;5073609;28;20032;-79
2022/06/12 11:13:27;;;;;;;11.05;4.25;;;;;;;;;;5081351;28;20048;-81
2022/06/12 11:15:59;;;;;;;6.97;3.25;;;;;;;;;;5079551;28;20138;-77
2022/06/12 11:18:26;;;;;;;6.65;3.20;;;;;;;;;;5087425;28;20383;-78
2022/06/12 11:20:58;;;;;;;6.18;3.70;;;;;;;;;;5080468;28;20383;-79
2022/06/12 11:23:42;;;;;;;6.43;2.88;;;;;;;;;;5082169;28;20383;-79
2022/06/12 11:26:22;;;;;;;6.45;3.20;;;;;;;;;;5075051;28;20056;-78
2022/06/12 11:29:06;;;;;;;7.88;3.28;;;;;;;;;;5082823;28;20063;-77
2022/06/12 11:32:00;;;;;;;12.50;3.75;;;;;;;;;;5076911;28;20072;-79
2022/06/12 11:34:44;;;;;;;7.65;3.45;;;;;;;;;;5076654;28;20472;-80
2022/06/12 11:37:29;;;;;;;9.63;3.60;;;;;;;;;;5092005;28;20095;-79
2022/06/12 11:39:55;;;;;;;5.28;3.08;;;;;;;;;;5087094;28;20498;-81
2022/06/12 11:42:35;;;;;;;6.93;3.03;;;;;;;;;;5078716;28;20040;-79
2022/06/12 11:45:07;;;;;;;5.50;2.83;;;;;;;;;;5083199;28;20541;-78
2022/06/12 11:47:34;;;;;;;5.05;2.88;;;;;;;;;;5084421;28;20082;-78
2022/06/12 11:50:12;;;;;;;6.60;2.97;;;;;;;;;;5077743;28;20047;-80
2022/06/12 11:52:53;;;;;;;8.25;3.63;;;;;;;;;;5088125;28;20114;-76
2022/06/12 11:55:28;;;;;;;6.95;3.10;;;;;;;;;;5076500;28;20493;-78
2022/06/12 11:57:55;;;;;;;13.80;4.15;;;;;;;;;;5073973;28;20047;-76
2022/06/12 12:00:41;;;;;;;7.57;2.63;;;;;;;;;;5084198;28;20127;-78
2022/06/12 12:03:26;;;;;;;7.10;2.45;;;;;;;;;;5051555;28;20478;-80
2022/06/12 12:06:04;;;;;;;5.60;2.33;;;;;;;;;;5068637;28;20308;-78
2022/06/12 12:08:30;;;;;;;7.35;3.13;;;;;;;;;;5079407;28;20075;-79
2022/06/12 12:11:08;;;;;;;8.40;3.10;;;;;;;;;;5076878;28;20127;-77
2022/06/12 12:13:42;;;;;;;9.20;3.10;;;;;;;;;;5078513;28;20116;-79
2022/06/12 12:16:23;;;;;;;13.43;3.30;;;;;;;;;;5077052;28;20071;-80
2022/06/12 12:19:15;;;;;;;7.15;3.22;;;;;;;;;;5088515;28;20040;-79
2022/06/12 12:21:41;;;;;;;9.07;3.83;;;;;;;;;;5079809;28;20106;-78
2022/06/12 12:24:11;;;;;;;14.40;4.05;;;;;;;;;;5082251;28;20050;-77
2022/06/12 12:26:39;;;;;;;16.25;4.65;;;;;;;;;;5085597;28;20051;-79
2022/06/12 12:29:07;;;;;;;7.95;3.60;;;;;;;;;;5081430;28;20078;-81
2022/06/12 12:31:33;;;;;;;11.88;3.38;;;;;;;;;;5084699;28;20055;-80
2022/06/12 12:34:04;;;;;;;8.15;3.13;;;;;;;;;;5076185;28;20119;-77
2022/06/12 12:42:29;;;;;;;8.95;3.33;;;;;;;;;;5078958;28;20052;-79
2022/06/12 12:44:56;;;;;;;8.10;3.15;;;;;;;;;;5084055;28;20041;-78
2022/06/12 12:47:28;;;;;;;8.73;3.20;;;;;;;;;;5083141;28;20044;-78
2022/06/12 12:49:56;;;;;;;;;;;;;;;;;;5075105;28;20148;-78
2022/06/12 12:52:22;;;;;;;7.15;3.03;;;;;;;;;;5086183;28;19916;-76
2022/06/12 12:54:56;;;;;;;7.85;2.65;;;;;;;;;;5084694;28;20047;-76
2022/06/12 12:57:42;;;;;;;7.93;2.90;;;;;;;;;;5085202;28;20126;-76
2022/06/12 13:00:26;;;;;;;8.40;3.10;;;;;;;;;;5078163;28;20059;-76
2022/06/12 13:02:57;;;;;;;8.85;3.60;;;;;;;;;;5069295;28;20036;-75
2022/06/12 13:05:37;;;;;;;5.90;3.28;;;;;;;;;;5077583;28;20036;-76
2022/06/12 13:08:15;;;;;;;9.13;3.00;;;;;;;;;;5083457;28;20142;-77
2022/06/12 13:11:00;;;;;;;9.60;2.72;;;;;;;;;;5075977;28;20512;-75
2022/06/12 13:13:33;;;;;;;9.30;3.28;;;;;;;;;;5077364;28;20038;-77
2022/06/12 13:16:04;;;;;;;7.53;3.70;;;;;;;;;;5083656;28;20043;-77
2022/06/12 13:18:39;;;;;;;5.60;2.83;;;;;;;;;;5085986;28;20131;-75
2022/06/12 13:21:11;;;;;;;8.82;3.28;;;;;;;;;;5078341;28;20127;-76
2022/06/12 13:23:40;;;;;;;6.57;3.53;;;;;;;;;;5084471;28;20072;-77
2022/06/12 13:26:09;;;;;;;9.80;4.25;;;;;;;;;;5070017;28;20048;-77
2022/06/12 13:28:35;;;;;;;6.43;3.00;;;;;;;;;;5088205;28;20375;-77
2022/06/12 13:31:03;;;;;;;10.63;3.35;;;;;;;;;;5079699;28;20105;-75
2022/06/12 13:33:31;;;;;;;7.07;3.35;;;;;;;;;;5064065;28;20116;-74
2022/06/12 13:35:57;;;;;;;7.40;3.63;;;;;;;;;;5079340;28;20047;-76
2022/06/12 13:38:27;;;;;;;9.48;4.20;;;;;;;;;;5082050;28;20570;-75
2022/06/12 13:40:56;;;;;;;7.65;3.63;;;;;;;;;;5076142;28;20036;-77
2022/06/12 13:43:26;;;;;;;14.63;4.97;;;;;;;;;;5075087;28;20039;-76
2022/06/12 13:45:54;;;;;;;14.30;5.05;;;;;;;;;;5071809;28;20501;-76
2022/06/12 13:48:24;;;;;;;13.45;5.10;;;;;;;;;;5084897;28;20683;-76
2022/06/12 13:50:54;;;;;;;10.25;4.53;;;;;;;;;;5072643;28;20041;-76
2022/06/12 13:53:21;;;;;;;9.50;4.10;;;;;;;;;;5069336;28;20047;-76
2022/06/12 13:55:54;;;;;;;7.30;4.00;;;;;;;;;;5085381;28;20039;-76
2022/06/12 13:58:23;;;;;;;15.15;5.43;;;;;;;;;;5077740;28;20238;-77
2022/06/12 14:00:51;;;;;;;6.78;3.88;;;;;;;;;;5080462;28;20040;-76
2022/06/12 14:03:23;;;;;;;10.98;5.18;;;;;;;;;;5082167;28;20048;-76
2022/06/12 14:05:54;;;;;;;15.85;4.45;;;;;;;;;;5078118;28;20524;-77
2022/06/12 14:08:21;;;;;;;8.37;4.37;;;;;;;;;;5081537;28;20040;-76
2022/06/12 14:10:48;;;;;;;10.00;4.20;;;;;;;;;;5083550;28;20040;-77
2022/06/12 14:13:36;;;;;;;7.45;4.07;;;;;;;;;;5077402;28;20048;-78
2022/06/12 14:16:15;;;;;;;6.88;4.05;;;;;;;;;;5083277;28;20059;-76
2022/06/12 14:18:57;;;;;;;10.40;3.75;;;;;;;;;;5089080;28;20047;-77
2022/06/12 14:21:37;;;;;;;12.68;3.80;;;;;;;;;;5085585;28;20060;-76
2022/06/12 14:24:22;;;;;;;10.05;3.97;;;;;;;;;;5083078;28;20136;-78
2022/06/12 14:26:49;;;;;;;9.55;4.20;;;;;;;;;;5078288;28;20032;-78
2022/06/12 14:29:34;;;;;;;14.48;4.03;;;;;;;;;;5088542;28;20040;-76
2022/06/12 14:32:09;;;;;;;8.98;3.78;;;;;;;;;;5084256;28;20533;-78
2022/06/12 14:34:35;;;;;;;9.75;3.40;;;;;;;;;;5088259;28;20474;-78
2022/06/12 14:37:01;;;;;;;12.75;4.63;;;;;;;;;;5085638;28;20054;-78
2022/06/12 14:39:38;;;;;;;9.07;3.92;;;;;;;;;;5081377;28;20699;-78
2022/06/12 14:42:09;;;;;;;11.75;4.47;;;;;;;;;;5082914;28;20494;-79
2022/06/12 14:44:35;;;;;;;11.45;3.60;;;;;;;;;;5080621;28;20032;-78
2022/06/12 14:47:18;;;;;;;10.07;4.32;;;;;;;;;;5088792;28;20039;-78
2022/06/12 14:49:44;;;;;;;;;;;;;;;;;;5084405;28;20052;-78
2022/06/12 14:52:10;;;;;;;8.30;3.88;;;;;;;;;;5089427;28;19926;-79
2022/06/12 14:54:37;;;;;;;11.10;4.63;;;;;;;;;;5073750;28;20375;-78
2022/06/12 14:57:04;;;;;;;9.45;4.20;;;;;;;;;;5091105;28;20036;-77
2022/06/12 14:59:31;;;;;;;13.00;3.88;;;;;;;;;;5088478;28;20470;-77
2022/06/12 15:01:57;;;;;;;10.88;4.57;;;;;;;;;;5088566;28;20247;-76
2022/06/12 15:04:24;;;;;;;11.23;4.22;;;;;;;;;;5090389;28;20410;-77
2022/06/12 15:06:50;;;;;;;10.80;4.90;;;;;;;;;;5086464;28;20068;-76
2022/06/12 15:09:16;;;;;;;9.82;4.53;;;;;;;;;;5090911;28;20074;-77
2022/06/12 15:11:42;;;;;;;10.52;3.92;;;;;;;;;;5075831;28;20036;-77
2022/06/12 15:14:16;;;;;;;12.98;3.35;;;;;;;;;;5080805;28;20048;-75